Time;durP1;ratioP1;P1;durP2;ratioP2;P2;SDS_P1;SDS_P2;PMS_P1;PMS_P2;Temp;Humidity;BMP_temperature;BMP_pressure;BME280_temperature;BME280_humidity;BME280_pressure;Samples;Min_cycle;Max_cycle;Signal;HPM_P1;HPM_P2
2022/11/05 00:09:28;;;;;;;;;;;;;;;21.27;62.36;100541.22;5064948;28;2954;-62
2022/11/05 00:09:31;;;;;;;;;;;;;;;21.23;62.40;100567.00;5065042;28;2931;-62
2022/11/05 00:17:28;;;;;;;;;;;;;;;21.22;62.42;100577.03;5069488;28;2776;-61
2022/11/05 00:19:54;;;;;;;;;;;;;;;21.21;62.54;100572.69;5067840;28;3047;-62
2022/11/05 00:25:15;;;;;;;;;;;;;;;21.19;62.81;100581.25;5065090;28;3189;-62
2022/11/05 00:27:43;;;;;;;;;;;;;;;21.21;62.41;100584.22;5065739;28;1664;-61
2022/11/05 00:30:10;;;;;;;;;;;;;;;21.20;62.33;100594.22;5059533;28;2895;-61
2022/11/05 00:32:36;;;;;;;;;;;;;;;21.20;62.55;100582.72;5058298;28;2953;-61
2022/11/05 00:35:04;;;;;;;;;;;;;;;21.20;62.29;100582.72;5066550;28;1712;-62
2022/11/05 00:37:31;;;;;;;;;;;;;;;21.20;62.63;100594.22;5064255;28;3184;-62
2022/11/05 00:39:57;;;;;;;;;;;;;;;21.19;62.42;100586.25;5062439;28;2922;-62
2022/11/05 00:45:09;;;;;;;;;;;;;;;21.19;62.34;100601.41;5062511;28;2887;-63
2022/11/05 00:50:20;;;;;;;;;;;;;;;21.18;62.49;100599.19;5060929;28;2462;-62
2022/11/05 00:52:55;;;;;;;;;;;;;;;21.19;62.51;100601.41;5063990;28;2379;-62
2022/11/05 00:55:24;;;;;;;;;;;;;;;21.17;62.41;100601.31;5067777;28;1636;-62
2022/11/05 00:57:51;;;;;;;;;;;;;;;21.18;62.26;100611.44;5062678;28;3335;-61
2022/11/05 01:00:17;;;;;;;;;;;;;;;21.16;62.40;100611.34;5068509;28;1700;-61
2022/11/05 01:02:43;;;;;;;;;;;;;;;21.16;62.42;100599.84;5067624;28;2284;-61
2022/11/05 01:05:10;;;;;;;;;;;;;;;21.16;62.35;100617.09;5069353;28;2519;-61
2022/11/05 01:07:36;;;;;;;;;;;;;;;21.15;62.62;100615.66;5064232;28;2777;-62
2022/11/05 01:10:03;;;;;;;;;;;;;;;21.14;62.64;100617.03;5063788;28;2533;-62
2022/11/05 01:12:29;;;;;;;;;;;;;;;21.16;62.55;100619.25;5067117;28;1659;-61
2022/11/05 01:14:56;;;;;;;;;;;;;;;21.15;62.32;100627.16;5065690;28;2280;-62
2022/11/05 01:17:22;;;;;;;;;;;;;;;21.15;62.32;100627.16;5061691;28;3349;-62
2022/11/05 01:19:48;;;;;;;;;;;;;;;21.14;62.55;100628.53;5064927;28;2060;-62
2022/11/05 01:22:15;;;;;;;;;;;;;;;21.15;62.50;100632.91;5067980;28;1981;-62
2022/11/05 01:24:41;;;;;;;;;;;;;;;21.12;62.59;100628.50;5060390;28;2606;-62
2022/11/05 01:27:07;;;;;;;;;;;;;;;21.10;62.35;100631.28;5060239;28;2948;-62
2022/11/05 01:29:34;;;;;;;;;;;;;;;21.12;62.37;100634.97;5061685;28;2902;-61
2022/11/05 01:32:00;;;;;;;;;;;;;;;21.13;62.54;100635.72;5064584;28;3637;-62
2022/11/05 01:34:26;;;;;;;;;;;;;;;21.12;62.38;100634.97;5067219;28;3013;-62
2022/11/05 01:36:53;;;;;;;;;;;;;;;21.13;62.37;100635.72;5075077;28;1924;-62
2022/11/05 01:39:19;;;;;;;;;;;;;;;21.12;62.24;100645.75;5074816;28;3103;-61
2022/11/05 01:41:45;;;;;;;;;;;;;;;21.12;62.52;100645.75;5069613;28;2679;-61
2022/11/05 01:44:30;;;;;;;;;;;;;;;21.11;62.53;100647.16;5069107;28;2570;-61
2022/11/05 01:46:57;;;;;;;;;;;;;;;21.12;62.31;100651.53;5074337;28;2378;-61
2022/11/05 01:49:25;;;;;;;;;;;;;;;21.11;62.59;100658.66;5077645;28;1932;-61
2022/11/05 01:51:52;;;;;;;;;;;;;;;21.09;62.55;100652.81;5070263;28;2686;-62
2022/11/05 01:54:28;;;;;;;;;;;;;;;21.10;62.39;100660.06;5077629;28;2363;-62
2022/11/05 01:57:14;;;;;;;;;;;;;;;21.09;62.46;100670.09;5072571;28;1838;-62
2022/11/05 02:00:06;;;;;;;;;;;;;;;21.09;62.30;100672.97;5053389;28;1773;-62
2022/11/05 02:02:54;;;;;;;;;;;;;;;21.07;62.47;100670.78;5073999;28;2149;-62
2022/11/05 02:05:25;;;;;;;;;;;;;;;21.09;62.48;100670.09;5068471;28;1686;-62
2022/11/05 02:07:52;;;;;;;;;;;;;;;21.08;62.52;100677.25;5064964;28;3213;-62
2022/11/05 02:10:18;;;;;;;;;;;;;;;21.10;62.38;100680.22;5066787;28;2933;-62
2022/11/05 02:12:46;;;;;;;;;;;;;;;21.08;62.22;100677.25;5072776;28;1779;-62
2022/11/05 02:15:16;;;;;;;;;;;;;;;21.07;62.40;100675.78;5068383;28;2659;-61
2022/11/05 02:17:47;;;;;;;;;;;;;;;21.05;62.28;100687.19;5069486;28;1671;-61
2022/11/05 02:20:21;;;;;;;;;;;;;;;21.05;62.45;100690.06;5071156;28;1859;-61
2022/11/05 02:22:59;;;;;;;;;;;;;;;21.06;62.26;100683.66;5063065;28;1934;-61
2022/11/05 02:25:31;;;;;;;;;;;;;;;21.05;62.53;100690.06;5071707;28;1636;-61
2022/11/05 02:28:16;;;;;;;;;;;;;;;21.05;62.27;100692.94;5069481;28;1686;-61
2022/11/05 02:30:49;;;;;;;;;;;;;;;21.05;62.50;100696.59;5068092;28;1772;-62
2022/11/05 02:33:24;;;;;;;;;;;;;;;21.04;62.15;100700.13;5068911;28;1747;-61
2022/11/05 02:35:57;;;;;;;;;;;;;;;21.02;62.25;100688.53;5071094;28;1627;-61
2022/11/05 02:38:27;;;;;;;;;;;;;;;21.04;62.49;100697.97;5067331;28;1733;-61
2022/11/05 02:41:13;;;;;;;;;;;;;;;21.04;62.21;100697.97;5075750;28;1810;-61
2022/11/05 02:43:45;;;;;;;;;;;;;;;21.01;62.35;100698.56;5070562;28;1953;-61
2022/11/05 02:46:31;;;;;;;;;;;;;;;21.01;62.43;100704.31;5077790;28;1667;-61
2022/11/05 02:49:00;;;;;;;;;;;;;;;21.01;62.32;100710.81;5066408;28;1698;-61
2022/11/05 02:51:30;;;;;;;;;;;;;;;21.01;62.15;100712.97;5064298;28;1940;-62
2022/11/05 02:53:57;;;;;;;;;;;;;;;21.01;62.43;100698.56;5064757;28;1746;-61
2022/11/05 02:56:33;;;;;;;;;;;;;;;20.99;62.33;100712.88;5064027;28;1639;-61
2022/11/05 02:59:00;;;;;;;;;;;;;;;20.98;62.42;100705.63;5063984;28;1730;-61
2022/11/05 03:01:26;;;;;;;;;;;;;;;20.99;62.43;100716.50;5062267;28;1654;-62
2022/11/05 03:03:54;;;;;;;;;;;;;;;20.97;62.51;100721.41;5065408;28;2169;-61
2022/11/05 03:06:27;;;;;;;;;;;;;;;20.96;62.47;100702.66;5065335;28;1664;-61
2022/11/05 03:08:54;;;;;;;;;;;;;;;20.96;62.39;100714.16;5065399;28;1665;-61
2022/11/05 03:11:21;;;;;;;;;;;;;;;20.96;62.23;100719.94;5065219;28;2251;-61
2022/11/05 03:13:52;;;;;;;;;;;;;;;20.93;62.44;100722.72;5063563;28;1676;-61
2022/11/05 03:16:25;;;;;;;;;;;;;;;20.95;62.44;100724.22;5065804;28;1683;-61
2022/11/05 03:18:55;;;;;;;;;;;;;;;20.95;62.39;100727.09;5075005;28;1830;-61
2022/11/05 03:21:23;;;;;;;;;;;;;;;20.93;62.44;100737.09;5077107;28;1799;-61
2022/11/05 03:23:58;;;;;;;;;;;;;;;20.93;62.45;100734.22;5072509;28;1914;-61
2022/11/05 03:26:25;;;;;;;;;;;;;;;20.93;62.21;100739.25;5072839;28;1651;-61
2022/11/05 03:29:07;;;;;;;;;;;;;;;20.94;62.38;100735.00;5069684;28;1735;-61
2022/11/05 03:31:33;;;;;;;;;;;;;;;20.93;62.30;100742.88;5077132;28;1636;-61
2022/11/05 03:34:00;;;;;;;;;;;;;;;20.92;62.24;100755.78;5066336;28;1703;-61
2022/11/05 03:36:29;;;;;;;;;;;;;;;20.90;62.27;100758.56;5067782;28;1714;-61
2022/11/05 03:38:56;;;;;;;;;;;;;;;20.91;62.34;100762.19;5068137;28;1694;-61
2022/11/05 03:41:22;;;;;;;;;;;;;;;20.90;62.23;100754.97;5066923;28;1869;-61
2022/11/05 03:43:49;;;;;;;;;;;;;;;20.91;62.16;100756.44;5064423;28;1910;-61
2022/11/05 03:46:23;;;;;;;;;;;;;;;20.92;62.31;100761.53;5066885;28;1734;-61
2022/11/05 03:48:51;;;;;;;;;;;;;;;20.93;61.96;100757.25;5071698;28;1795;-62
2022/11/05 03:51:27;;;;;;;;;;;;;;;20.97;61.96;100767.47;5072823;28;1806;-61
2022/11/05 03:53:55;;;;;;;;;;;;;;;20.99;61.93;100776.22;5075081;28;1811;-61
2022/11/05 03:56:29;;;;;;;;;;;;;;;21.00;62.06;100783.44;5073720;28;1640;-61
2022/11/05 03:58:55;;;;;;;;;;;;;;;21.02;61.73;100780.63;5073721;28;1663;-61
2022/11/05 04:01:24;;;;;;;;;;;;;;;21.03;61.77;100782.13;5077504;28;1730;-61
2022/11/05 04:03:51;;;;;;;;;;;;;;;21.01;61.76;100785.66;5073274;28;1910;-61
2022/11/05 04:14:31;;;;;;;;;;;;;;;21.01;61.88;100802.94;5069073;28;1655;-61
2022/11/05 04:17:08;;;;;;;;;;;;;;;21.01;61.90;100794.31;5072483;28;1687;-61
2022/11/05 04:25:05;;;;;;;;;;;;;;;21.05;61.78;100817.50;5073620;28;1643;-61
2022/11/05 04:27:31;;;;;;;;;;;;;;;21.06;61.46;100821.13;5064220;28;1687;-61
2022/11/05 04:33:01;;;;;;;;;;;;;;;21.08;61.50;100824.09;5071787;28;1597;-61
2022/11/05 04:35:28;;;;;;;;;;;;;;;21.08;61.58;100829.84;5066786;28;1728;-61
2022/11/05 04:37:55;;;;;;;;;;;;;;;21.08;61.74;100824.09;5071949;28;1701;-61
2022/11/05 04:40:21;;;;;;;;;;;;;;;21.09;61.66;100831.31;5072832;28;1619;-61
2022/11/05 04:42:47;;;;;;;;;;;;;;;21.09;61.47;100823.41;5073761;28;1906;-61
2022/11/05 04:45:14;;;;;;;;;;;;;;;21.10;61.39;100832.81;5071098;28;1632;-61
2022/11/05 04:47:40;;;;;;;;;;;;;;;21.10;61.31;100832.81;5069296;28;1861;-61
2022/11/05 04:50:09;;;;;;;;;;;;;;;21.09;61.55;100832.06;5062015;28;1859;-61
2022/11/05 04:52:35;;;;;;;;;;;;;;;21.10;61.43;100832.81;5073348;28;1753;-61
2022/11/05 04:55:01;;;;;;;;;;;;;;;21.11;61.63;100835.03;5067960;28;1690;-61
2022/11/05 04:57:28;;;;;;;;;;;;;;;21.12;61.54;100830.78;5066628;28;1629;-61
2022/11/05 04:59:54;;;;;;;;;;;;;;;21.10;61.27;100827.06;5072534;28;1699;-61
2022/11/05 05:02:20;;;;;;;;;;;;;;;21.13;61.36;100828.63;5080181;28;1910;-62
2022/11/05 05:04:47;;;;;;;;;;;;;;;21.16;61.15;100835.94;5074471;28;1635;-61
2022/11/05 05:07:13;;;;;;;;;;;;;;;21.15;61.33;100827.97;5078283;28;1762;-61
2022/11/05 05:09:40;;;;;;;;;;;;;;;21.15;61.34;100839.50;5074697;28;2049;-61
2022/11/05 05:12:06;;;;;;;;;;;;;;;21.13;61.31;100822.88;5075196;28;1900;-61
2022/11/05 05:14:33;;;;;;;;;;;;;;;21.15;61.53;100834.47;5072328;28;1722;-61
2022/11/05 05:16:59;;;;;;;;;;;;;;;21.16;61.32;100840.97;5071136;28;2023;-61
2022/11/05 05:19:25;;;;;;;;;;;;;;;21.13;61.56;100837.25;5066752;28;1615;-61
2022/11/05 05:21:52;;;;;;;;;;;;;;;21.13;61.32;100840.13;5074378;28;1820;-62
2022/11/05 05:24:18;;;;;;;;;;;;;;;21.12;61.30;100847.31;5071115;28;1975;-61
2022/11/05 05:26:45;;;;;;;;;;;;;;;21.12;61.47;100848.03;5077851;28;1692;-61
2022/11/05 05:29:12;;;;;;;;;;;;;;;21.14;61.38;100850.25;5067938;28;1648;-62
2022/11/05 05:31:38;;;;;;;;;;;;;;;21.15;61.51;100846.00;5074551;28;1734;-61
2022/11/05 05:34:04;;;;;;;;;;;;;;;21.15;61.41;100851.75;5078026;28;2087;-61
2022/11/05 05:36:31;;;;;;;;;;;;;;;21.16;61.11;100861.13;5062944;28;1650;-61
2022/11/05 05:38:57;;;;;;;;;;;;;;;21.16;61.42;100864.00;5072931;28;1655;-61
2022/11/05 05:41:23;;;;;;;;;;;;;;;21.18;61.48;100861.94;5073469;28;1810;-61
2022/11/05 05:43:50;;;;;;;;;;;;;;;21.16;61.20;100867.63;5077978;28;1973;-61
2022/11/05 05:46:16;;;;;;;;;;;;;;;21.18;61.10;100864.81;5068288;28;1858;-61
2022/11/05 05:48:42;;;;;;;;;;;;;;;21.16;61.54;100861.84;5076306;28;1824;-61
2022/11/05 05:51:09;;;;;;;;;;;;;;;21.18;61.06;100873.47;5073879;28;1587;-61
2022/11/05 05:53:35;;;;;;;;;;;;;;;21.18;61.43;100867.72;5069795;28;1571;-61
2022/11/05 05:56:02;;;;;;;;;;;;;;;21.18;61.38;100873.47;5073292;28;1639;-61
2022/11/05 05:58:32;;;;;;;;;;;;;;;21.18;61.20;100879.22;5073793;28;1749;-61
2022/11/05 06:00:59;;;;;;;;;;;;;;;21.20;61.23;100899.47;5072848;28;1915;-61
2022/11/05 06:03:25;;;;;;;;;;;;;;;21.20;61.35;100898.75;5078886;28;1946;-62
2022/11/05 06:05:51;;;;;;;;;;;;;;;21.21;60.95;100905.97;5069133;28;1798;-61
2022/11/05 06:08:18;;;;;;;;;;;;;;;21.22;61.11;100902.44;5074639;28;1552;-61
2022/11/05 06:10:50;;;;;;;;;;;;;;;21.22;61.07;100905.31;5072980;28;1998;-61
2022/11/05 06:13:16;;;;;;;;;;;;;;;21.23;61.08;100911.81;5074744;28;1639;-61
2022/11/05 06:15:43;;;;;;;;;;;;;;;21.21;61.42;100921.13;5068921;28;1598;-62
2022/11/05 06:18:09;;;;;;;;;;;;;;;21.22;61.02;100916.84;5070746;28;1644;-61
2022/11/05 06:20:35;;;;;;;;;;;;;;;21.22;61.12;100922.59;5070561;28;1841;-61
2022/11/05 06:23:02;;;;;;;;;;;;;;;21.22;61.16;100928.38;5070284;28;1913;-61
2022/11/05 06:25:28;;;;;;;;;;;;;;;21.22;61.14;100930.50;5067667;28;1746;-62
2022/11/05 06:27:54;;;;;;;;;;;;;;;21.23;61.07;100926.22;5076796;28;1943;-61
2022/11/05 06:30:22;;;;;;;;;;;;;;;21.22;61.19;100942.03;5070155;28;1876;-61
2022/11/05 06:32:48;;;;;;;;;;;;;;;21.22;61.46;100937.00;5075586;28;1770;-61
2022/11/05 06:35:15;;;;;;;;;;;;;;;21.21;61.35;100944.16;5067908;28;1643;-61
2022/11/05 06:37:41;;;;;;;;;;;;;;;21.24;61.13;100951.50;5068602;28;1735;-61
2022/11/05 06:40:08;;;;;;;;;;;;;;;21.25;61.04;100955.13;5068351;28;1603;-62
2022/11/05 06:42:34;;;;;;;;;;;;;;;21.24;60.84;100954.38;5073944;28;1967;-61
2022/11/05 06:45:00;;;;;;;;;;;;;;;21.26;61.21;100968.13;5073342;28;1635;-61
2022/11/05 06:47:27;;;;;;;;;;;;;;;21.26;61.09;100968.13;5072001;28;1776;-61
2022/11/05 06:49:53;;;;;;;;;;;;;;;21.24;61.23;100968.78;5071905;28;1587;-61
2022/11/05 06:52:19;;;;;;;;;;;;;;;21.23;60.84;100973.03;5076918;28;1584;-61
2022/11/05 06:54:46;;;;;;;;;;;;;;;21.23;60.99;100973.03;5068522;28;1647;-61
2022/11/05 06:57:12;;;;;;;;;;;;;;;21.24;61.23;100968.03;5065801;28;1599;-61
2022/11/05 06:59:38;;;;;;;;;;;;;;;21.24;61.01;100968.03;5071427;28;1817;-61
2022/11/05 07:02:05;;;;;;;;;;;;;;;21.25;60.98;100972.41;5070866;28;1630;-61
2022/11/05 07:04:31;;;;;;;;;;;;;;;21.25;61.16;100970.25;5073498;28;1969;-61
2022/11/05 07:07:01;;;;;;;;;;;;;;;21.25;60.97;100978.88;5070066;28;1578;-62
2022/11/05 07:09:27;;;;;;;;;;;;;;;21.26;60.95;100982.53;5072200;28;2186;-61
2022/11/05 07:11:53;;;;;;;;;;;;;;;21.26;61.02;100983.28;5070971;28;1592;-61
2022/11/05 07:14:20;;;;;;;;;;;;;;;21.26;61.21;100994.78;5067899;28;1802;-62
2022/11/05 07:16:46;;;;;;;;;;;;;;;21.27;60.99;100999.16;5072005;28;1913;-62
2022/11/05 07:19:13;;;;;;;;;;;;;;;21.27;61.03;101010.66;5076334;28;1603;-61
2022/11/05 07:21:39;;;;;;;;;;;;;;;21.26;60.96;101006.31;5074955;28;1580;-62
2022/11/05 07:24:06;;;;;;;;;;;;;;;21.26;61.08;101006.31;5065387;28;1913;-61
2022/11/05 07:26:32;;;;;;;;;;;;;;;21.26;60.95;101012.06;5068756;28;1861;-61
2022/11/05 07:29:00;;;;;;;;;;;;;;;21.27;60.81;101018.56;5072035;28;1555;-61
2022/11/05 07:31:26;;;;;;;;;;;;;;;21.26;60.97;101023.59;5072106;28;1779;-61
2022/11/05 07:33:52;;;;;;;;;;;;;;;21.27;61.10;101027.94;5075231;28;1718;-62
2022/11/05 07:36:19;;;;;;;;;;;;;;;21.26;60.84;101029.34;5073944;28;1763;-61
2022/11/05 07:38:45;;;;;;;;;;;;;;;21.29;61.07;101039.56;5074861;28;1805;-61
2022/11/05 07:41:11;;;;;;;;;;;;;;;21.29;60.94;101051.09;5074893;28;1603;-61
2022/11/05 07:43:38;;;;;;;;;;;;;;;21.29;60.88;101044.59;5082341;28;2351;-61
2022/11/05 07:46:04;;;;;;;;;;;;;;;21.29;60.92;101039.56;5081067;28;1589;-61
2022/11/05 07:48:37;;;;;;;;;;;;;;;21.30;60.92;101040.31;5074584;28;1941;-61
2022/11/05 07:51:04;;;;;;;;;;;;;;;21.29;60.84;101033.81;5079605;28;1587;-61
2022/11/05 07:53:30;;;;;;;;;;;;;;;21.29;60.90;101039.56;5079672;28;2298;-61
2022/11/05 07:55:57;;;;;;;;;;;;;;;21.27;60.85;101033.72;5074939;28;1663;-61
2022/11/05 07:58:24;;;;;;;;;;;;;;;21.28;61.05;101031.56;5081815;28;1798;-61
2022/11/05 08:00:50;;;;;;;;;;;;;;;21.28;60.84;101038.09;5077760;28;1572;-61
2022/11/05 08:03:16;;;;;;;;;;;;;;;21.28;60.83;101043.84;5067639;28;1918;-61
2022/11/05 08:05:45;;;;;;;;;;;;;;;21.29;60.80;101044.59;5078450;28;1714;-61
2022/11/05 08:08:15;;;;;;;;;;;;;;;21.30;60.85;101046.81;5074040;28;1624;-61
2022/11/05 08:10:41;;;;;;;;;;;;;;;21.30;61.03;101043.19;5080657;28;1794;-62
2022/11/05 08:13:07;;;;;;;;;;;;;;;21.30;60.71;101048.94;5081868;28;2064;-61
2022/11/05 08:15:34;;;;;;;;;;;;;;;21.31;60.66;101054.06;5071216;28;1793;-61
2022/11/05 08:18:02;;;;;;;;;;;;;;;21.31;60.98;101051.19;5070779;28;1592;-61
2022/11/05 08:20:28;;;;;;;;;;;;;;;21.31;60.72;101056.94;5079737;28;1578;-61
2022/11/05 08:22:55;;;;;;;;;;;;;;;21.32;60.75;101063.44;5071815;28;1661;-61
2022/11/05 08:25:21;;;;;;;;;;;;;;;21.31;60.87;101059.81;5079473;28;1730;-61
2022/11/05 08:27:48;;;;;;;;;;;;;;;21.31;60.86;101065.59;5070384;28;1774;-61
2022/11/05 08:30:15;;;;;;;;;;;;;;;21.30;60.98;101069.09;5072336;28;1662;-61
2022/11/05 08:32:41;;;;;;;;;;;;;;;21.30;60.84;101069.88;5069160;28;1552;-61
2022/11/05 08:35:07;;;;;;;;;;;;;;;21.30;60.66;101074.88;5069600;28;1672;-61
2022/11/05 08:37:34;;;;;;;;;;;;;;;21.30;60.97;101069.09;5072763;28;1812;-61
2022/11/05 08:40:00;;;;;;;;;;;;;;;21.31;60.95;101082.88;5072546;28;1782;-61
2022/11/05 08:42:26;;;;;;;;;;;;;;;21.30;60.69;101087.16;5077830;28;1580;-61
2022/11/05 08:44:53;;;;;;;;;;;;;;;21.32;60.70;101083.59;5070970;28;1906;-61
2022/11/05 08:47:19;;;;;;;;;;;;;;;21.34;60.94;101086.56;5068849;28;1861;-61
2022/11/05 08:49:45;;;;;;;;;;;;;;;21.33;60.71;101085.84;5071268;28;1634;-61
2022/11/05 08:52:12;;;;;;;;;;;;;;;21.33;60.91;101091.59;5073014;28;1579;-61
2022/11/05 08:54:38;;;;;;;;;;;;;;;21.33;61.05;101093.75;5069723;28;1773;-61
2022/11/05 08:57:04;;;;;;;;;;;;;;;21.33;60.70;101097.38;5070006;28;1593;-60
2022/11/05 08:59:31;;;;;;;;;;;;;;;21.33;60.91;101097.38;5072861;28;1640;-60
2022/11/05 09:01:57;;;;;;;;;;;;;;;21.33;60.93;101087.97;5070797;28;1581;-60
2022/11/05 09:04:23;;;;;;;;;;;;;;;21.32;60.64;101098.75;5073709;28;1910;-60
2022/11/05 09:06:50;;;;;;;;;;;;;;;21.33;60.95;101102.38;5068989;28;1826;-60
2022/11/05 09:09:16;;;;;;;;;;;;;;;21.31;60.97;101108.78;5067993;28;1675;-60
2022/11/05 09:11:42;;;;;;;;;;;;;;;21.30;60.84;101110.19;5073765;28;1600;-60
2022/11/05 09:14:30;;;;;;;;;;;;;;;21.31;61.00;101117.44;5072252;28;1620;-60
2022/11/05 09:16:56;;;;;;;;;;;;;;;21.30;61.00;101121.72;5067251;28;1600;-60
2022/11/05 09:19:23;;;;;;;;;;;;;;;21.30;61.12;101126.72;5071977;28;1678;-61
2022/11/05 09:21:49;;;;;;;;;;;;;;;21.30;60.77;101123.81;5069014;28;1670;-60
2022/11/05 09:24:15;;;;;;;;;;;;;;;21.29;60.84;101131.72;5068908;28;1902;-60
2022/11/05 09:26:41;;;;;;;;;;;;;;;21.30;60.92;101138.22;5070723;28;1723;-60
2022/11/05 09:29:08;;;;;;;;;;;;;;;21.31;60.71;101131.84;5067821;28;1635;-60
2022/11/05 09:31:39;;;;;;;;;;;;;;;21.32;60.73;101139.06;5069216;28;1841;-60
2022/11/05 09:34:06;;;;;;;;;;;;;;;21.34;60.65;101144.94;5070827;28;1635;-60
2022/11/05 09:36:32;;;;;;;;;;;;;;;21.34;60.87;101144.94;5070928;28;1698;-60
2022/11/05 09:38:58;;;;;;;;;;;;;;;21.36;61.00;101146.44;5071697;28;1515;-60
2022/11/05 09:41:27;;;;;;;;;;;;;;;21.36;60.70;101146.44;5070267;28;1694;-60
2022/11/05 09:43:54;;;;;;;;;;;;;;;21.34;60.73;101150.69;5071262;28;1913;-60
2022/11/05 09:46:22;;;;;;;;;;;;;;;21.34;60.65;101150.69;5070698;28;1575;-60
2022/11/05 09:48:50;;;;;;;;;;;;;;;21.34;60.84;101150.69;5068754;28;1727;-60
2022/11/05 09:51:16;;;;;;;;;;;;;;;21.34;60.63;101153.56;5071031;28;1809;-60
2022/11/05 09:53:49;;;;;;;;;;;;;;;21.33;60.85;101154.97;5070716;28;1776;-60
2022/11/05 09:56:22;;;;;;;;;;;;;;;21.33;60.67;101165.75;5070179;28;1563;-60
2022/11/05 09:58:53;;;;;;;;;;;;;;;21.33;60.71;101163.63;5071927;28;3388;-61
2022/11/05 10:01:24;;;;;;;;;;;;;;;21.33;60.67;101154.97;5076120;28;1739;-60
2022/11/05 10:03:52;;;;;;;;;;;;;;;21.34;60.87;101155.72;5070734;28;2946;-60
2022/11/05 10:06:19;;;;;;;;;;;;;;;21.36;60.66;101152.19;5072721;28;2969;-61
2022/11/05 10:08:48;;;;;;;;;;;;;;;21.36;60.75;101155.06;5069218;28;2931;-60
2022/11/05 10:11:19;;;;;;;;;;;;;;;21.37;60.43;101159.44;5074507;28;2677;-60
2022/11/05 10:13:53;;;;;;;;;;;;;;;21.37;60.79;101153.66;5069345;28;2849;-61
2022/11/05 10:16:24;;;;;;;;;;;;;;;21.38;60.70;101160.94;5073797;28;2414;-60
2022/11/05 10:18:56;;;;;;;;;;;;;;;21.38;60.63;101166.69;5071252;28;2889;-61
2022/11/05 10:21:22;;;;;;;;;;;;;;;21.38;60.65;101169.56;5075881;28;2826;-61
2022/11/05 10:24:12;;;;;;;;;;;;;;;21.37;60.74;101170.94;5070857;28;3246;-60
2022/11/05 10:26:39;;;;;;;;;;;;;;;21.36;60.60;101172.34;5068163;28;3008;-61
2022/11/05 10:29:05;;;;;;;;;;;;;;;21.36;60.62;101163.72;5071396;28;2851;-60
2022/11/05 10:31:33;;;;;;;;;;;;;;;21.33;60.78;101160.72;5072136;28;1806;-60
2022/11/05 10:34:01;;;;;;;;;;;;;;;21.34;60.88;101161.47;5067839;28;2893;-60
2022/11/05 10:36:28;;;;;;;;;;;;;;;21.34;60.81;101167.97;5073925;28;1603;-60
2022/11/05 10:38:59;;;;;;;;;;;;;;;21.37;60.79;101170.94;5070788;28;2372;-61
2022/11/05 10:41:32;;;;;;;;;;;;;;;21.36;60.96;101175.97;5072772;28;2131;-61
2022/11/05 10:44:04;;;;;;;;;;;;;;;21.37;60.77;101176.72;5069835;28;2669;-61
2022/11/05 10:46:37;;;;;;;;;;;;;;;21.38;60.63;101178.22;5073300;28;1638;-60
2022/11/05 10:49:14;;;;;;;;;;;;;;;21.40;60.44;101175.44;5069763;28;2778;-60
2022/11/05 10:51:40;;;;;;;;;;;;;;;21.38;60.86;101178.94;5069965;28;2906;-60
2022/11/05 10:54:12;;;;;;;;;;;;;;;21.38;60.84;101183.97;5072472;28;1596;-60
2022/11/05 10:56:39;;;;;;;;;;;;;;;21.38;60.64;101178.94;5073334;28;2669;-60
2022/11/05 10:59:15;;;;;;;;;;;;;;;21.38;60.72;101184.72;5071052;28;2932;-60
2022/11/05 11:01:41;;;;;;;;;;;;;;;21.38;60.87;101189.75;5075920;28;3063;-61
2022/11/05 11:04:12;;;;;;;;;;;;;;;21.37;60.71;101191.13;5076605;28;1919;-60
2022/11/05 11:06:42;;;;;;;;;;;;;;;21.39;60.69;101196.97;5075859;28;1803;-61
2022/11/05 11:09:16;;;;;;;;;;;;;;;21.39;60.46;101194.09;5074280;28;2918;-60
2022/11/05 11:11:42;;;;;;;;;;;;;;;21.40;60.87;101198.47;5071635;28;2785;-61
2022/11/05 11:14:12;;;;;;;;;;;;;;;21.40;60.58;101210.00;5074778;28;2795;-61
2022/11/05 11:16:45;;;;;;;;;;;;;;;21.39;60.44;101200.59;5074419;28;3064;-60
2022/11/05 11:19:25;;;;;;;;;;;;;;;21.40;60.82;101198.47;5073076;28;2657;-61
2022/11/05 11:22:10;;;;;;;;;;;;;;;21.40;60.65;101198.47;5071821;28;2878;-60
2022/11/05 11:24:37;;;;;;;;;;;;;;;21.40;60.61;101192.72;5073397;28;2892;-60
2022/11/05 11:27:04;;;;;;;;;;;;;;;21.40;60.68;101195.59;5075145;28;2768;-60
2022/11/05 11:29:34;;;;;;;;;;;;;;;21.41;60.67;101202.88;5076491;28;1615;-60
2022/11/05 11:32:01;;;;;;;;;;;;;;;21.40;60.49;101198.47;5073204;28;2773;-60
2022/11/05 11:34:32;;;;;;;;;;;;;;;21.39;60.43;101197.72;5072862;28;2704;-60
2022/11/05 11:37:03;;;;;;;;;;;;;;;21.40;60.65;101204.25;5075952;28;2775;-60
2022/11/05 11:39:30;;;;;;;;;;;;;;;21.39;60.72;101200.59;5074519;28;2772;-60
2022/11/05 11:41:58;;;;;;;;;;;;;;;21.38;60.68;101196.22;5075304;28;2767;-60
2022/11/05 11:44:26;;;;;;;;;;;;;;;21.39;60.42;101203.47;5078168;28;1938;-60
2022/11/05 11:46:53;;;;;;;;;;;;;;;21.38;60.62;101201.25;5065021;28;2933;-60
2022/11/05 11:49:37;;;;;;;;;;;;;;;21.38;60.49;101207.03;5075578;28;2854;-60
2022/11/05 11:52:07;;;;;;;;;;;;;;;21.38;60.76;101202.00;5079211;28;1604;-60
2022/11/05 11:54:34;;;;;;;;;;;;;;;21.39;60.30;101208.50;5074448;28;2906;-60
2022/11/05 11:57:00;;;;;;;;;;;;;;;21.41;60.36;101205.75;5078666;28;1861;-60
2022/11/05 11:59:27;;;;;;;;;;;;;;;21.42;60.64;101201.50;5068966;28;2988;-61
2022/11/05 12:02:27;;;;;;;;;;;;;;;21.43;60.34;101211.59;5071714;28;2759;-61
2022/11/05 12:05:09;;;;;;;;;;;;;;;21.41;60.28;101205.75;5074021;28;1910;-61
2022/11/05 12:07:38;;;;;;;;;;;;;;;21.43;60.54;101205.84;5074712;28;1537;-60
2022/11/05 12:10:11;;;;;;;;;;;;;;;21.42;60.36;101201.50;5081129;28;1577;-61
2022/11/05 12:12:38;;;;;;;;;;;;;;;21.42;60.22;101208.00;5080561;28;1691;-61
2022/11/05 12:15:10;;;;;;;;;;;;;;;21.43;60.46;101208.72;5078717;28;3033;-60
2022/11/05 12:17:56;;;;;;;;;;;;;;;21.41;60.37;101203.59;5080980;28;3048;-61
2022/11/05 12:20:30;;;;;;;;;;;;;;;21.40;60.45;101210.78;5076747;28;3219;-61
2022/11/05 12:23:10;;;;;;;;;;;;;;;21.41;60.31;101211.50;5077151;28;2669;-60
2022/11/05 12:25:42;;;;;;;;;;;;;;;21.40;60.47;101201.34;5079612;28;2353;-60
2022/11/05 12:28:12;;;;;;;;;;;;;;;21.39;60.61;101209.25;5077586;28;1817;-61
2022/11/05 12:30:50;;;;;;;;;;;;;;;21.38;60.73;101202.00;5080732;28;2644;-60
2022/11/05 12:33:19;;;;;;;;;;;;;;;21.39;60.73;101202.75;5075908;28;1897;-60
2022/11/05 12:35:51;;;;;;;;;;;;;;;21.39;60.66;101202.75;5080279;28;1716;-60
2022/11/05 12:38:38;;;;;;;;;;;;;;;21.39;60.64;101194.09;5081537;28;1631;-60
2022/11/05 12:41:10;;;;;;;;;;;;;;;21.38;60.51;101195.50;5079112;28;2125;-60
2022/11/05 12:43:40;;;;;;;;;;;;;;;21.37;60.65;101194.72;5079386;28;1741;-60
2022/11/05 12:46:24;;;;;;;;;;;;;;;21.39;60.45;101196.97;5080700;28;1981;-61
2022/11/05 12:48:50;;;;;;;;;;;;;;;21.38;60.66;101198.38;5078506;28;1821;-61
2022/11/05 12:51:20;;;;;;;;;;;;;;;21.33;60.43;101201.06;5082618;28;1703;-61
2022/11/05 12:53:49;;;;;;;;;;;;;;;21.33;60.65;101201.06;5080107;28;1552;-61
2022/11/05 12:56:17;;;;;;;;;;;;;;;21.31;60.85;101198.09;5079798;28;2946;-61
2022/11/05 12:58:45;;;;;;;;;;;;;;;21.33;60.85;101206.09;5071395;28;1643;-60
2022/11/05 13:01:13;;;;;;;;;;;;;;;21.39;60.57;101203.47;5061618;28;2698;-60
2022/11/05 13:03:46;;;;;;;;;;;;;;;21.40;61.05;101205.00;5068411;28;1775;-60
2022/11/05 13:06:14;;;;;;;;;;;;;;;21.45;60.98;101208.81;5067261;28;2443;-60
2022/11/05 13:08:42;;;;;;;;;;;;;;;21.45;60.43;101211.72;5067949;28;1622;-60
2022/11/05 13:11:08;;;;;;;;;;;;;;;21.46;60.84;101207.41;5064429;28;1839;-60
2022/11/05 13:13:37;;;;;;;;;;;;;;;21.47;60.90;101206.78;5070623;28;1743;-59
2022/11/05 13:16:05;;;;;;;;;;;;;;;21.53;61.00;101200.56;5071478;28;1735;-60
2022/11/05 13:18:40;;;;;;;;;;;;;;;21.52;60.92;101201.94;5070036;28;2268;-60
2022/11/05 13:21:07;;;;;;;;;;;;;;;21.50;61.02;101204.75;5068835;28;1691;-60
2022/11/05 13:23:38;;;;;;;;;;;;;;;21.53;60.84;101200.56;5068880;28;1905;-62
2022/11/05 13:26:06;;;;;;;;;;;;;;;21.54;60.96;101207.81;5070381;28;1906;-60
2022/11/05 13:28:38;;;;;;;;;;;;;;;21.56;60.83;101204.28;5068344;28;1695;-60
2022/11/05 13:31:04;;;;;;;;;;;;;;;21.55;61.10;101203.53;5075365;28;1703;-61
2022/11/05 13:33:32;;;;;;;;;;;;;;;21.56;61.02;101202.16;5075151;28;1822;-60